createdAt,value
2023-01-17T00:01:06.938Z,3.05
2023-01-17T00:03:56.746Z,3.03
2023-01-17T00:06:43.991Z,3.03
2023-01-17T00:09:37.499Z,3.00
2023-01-17T00:12:08.196Z,2.98
2023-01-17T00:14:38.873Z,2.97
2023-01-17T00:17:07.719Z,2.94
2023-01-17T00:19:54.221Z,2.92
2023-01-17T00:22:45.169Z,2.92
2023-01-17T00:25:32.477Z,2.92
2023-01-17T00:28:00.824Z,2.86
2023-01-17T00:30:30.482Z,2.77
2023-01-17T00:32:58.238Z,2.80
2023-01-17T00:35:28.126Z,2.81
2023-01-17T00:38:04.016Z,2.82
2023-01-17T00:40:32.500Z,2.74
2023-01-17T00:43:19.168Z,2.73
2023-01-17T00:46:07.672Z,2.74
2023-01-17T00:48:55.067Z,2.77
2023-01-17T00:51:41.999Z,2.74
2023-01-17T00:54:28.711Z,2.75
2023-01-17T00:57:15.732Z,2.72
2023-01-17T01:00:04.791Z,2.71
2023-01-17T01:02:56.729Z,2.70
2023-01-17T01:05:43.640Z,2.70
2023-01-17T01:08:41.521Z,2.73
2023-01-17T01:11:32.830Z,2.69
2023-01-17T01:14:19.750Z,2.67
2023-01-17T01:17:06.739Z,2.64
2023-01-17T01:19:55.725Z,2.58
2023-01-17T01:22:42.549Z,2.58
2023-01-17T01:25:29.350Z,2.57
2023-01-17T01:28:22.145Z,2.57
2023-01-17T01:31:08.646Z,2.56
2023-01-17T01:33:37.804Z,2.49
2023-01-17T01:36:10.343Z,2.52
2023-01-17T01:38:39.984Z,2.48
2023-01-17T01:41:09.321Z,2.47
2023-01-17T01:43:49.969Z,2.44
2023-01-17T01:46:22.447Z,2.38
2023-01-17T01:48:55.322Z,2.34
2023-01-17T01:51:30.147Z,2.37
2023-01-17T01:54:08.430Z,2.33
2023-01-17T01:56:38.274Z,2.32
2023-01-17T01:59:11.478Z,2.31
2023-01-17T02:01:40.759Z,2.36
2023-01-17T02:04:11.114Z,2.28
2023-01-17T02:06:43.785Z,2.22
2023-01-17T02:09:14.806Z,2.19
2023-01-17T02:11:44.434Z,2.21
2023-01-17T02:14:17.224Z,2.17
2023-01-17T02:16:55.008Z,2.14
2023-01-17T02:20:03.374Z,2.15
2023-01-17T02:22:59.417Z,2.19
2023-01-17T02:25:49.607Z,2.17
2023-01-17T02:32:54.699Z,2.10
2023-01-17T02:35:31.290Z,2.10
2023-01-17T02:38:04.569Z,2.11
2023-01-17T02:40:37.447Z,2.07
2023-01-17T02:43:09.840Z,2.04
2023-01-17T02:45:39.485Z,2.04
2023-01-17T02:48:15.405Z,2.11
2023-01-17T02:51:10.317Z,2.10
2023-01-17T02:53:51.689Z,2.09
2023-01-17T02:56:28.832Z,2.11
2023-01-17T02:59:09.709Z,2.00
2023-01-17T03:01:45.534Z,1.95
2023-01-17T03:04:20.029Z,1.95
2023-01-17T03:06:52.311Z,1.96
2023-01-17T03:09:24.161Z,1.95
2023-01-17T03:11:54.081Z,1.95
2023-01-17T03:14:32.903Z,1.95
2023-01-17T03:17:02.160Z,1.82
2023-01-17T03:19:32.884Z,1.77
2023-01-17T03:22:02.649Z,1.76
2023-01-17T03:24:31.644Z,1.76
2023-01-17T03:27:00.822Z,1.78
2023-01-17T03:29:30.845Z,1.78
2023-01-17T03:31:59.857Z,1.78
2023-01-17T03:34:29.763Z,1.80
2023-01-17T03:37:05.508Z,1.80
2023-01-17T03:39:34.721Z,1.82
2023-01-17T03:42:04.328Z,1.81
2023-01-17T03:44:34.357Z,1.79
2023-01-17T03:47:03.446Z,1.84
2023-01-17T03:49:32.849Z,1.78
2023-01-17T03:52:09.419Z,1.81
2023-01-17T03:54:38.723Z,1.84
2023-01-17T03:57:08.927Z,1.84
2023-01-17T03:59:38.049Z,1.80
2023-01-17T04:02:07.285Z,1.70
2023-01-17T04:04:38.791Z,1.62
2023-01-17T04:07:09.680Z,1.63
2023-01-17T04:09:41.287Z,1.55
2023-01-17T04:12:10.076Z,1.58
2023-01-17T04:14:41.318Z,1.48
2023-01-17T04:17:12.061Z,1.46
2023-01-17T04:19:42.388Z,1.55
2023-01-17T04:22:13.121Z,1.54
2023-01-17T04:24:42.639Z,1.50
2023-01-17T04:27:17.967Z,1.51
2023-01-17T04:29:47.084Z,1.59
2023-01-17T04:32:16.365Z,1.57
2023-01-17T04:34:46.383Z,1.43
2023-01-17T04:37:16.912Z,1.43
2023-01-17T04:39:46.217Z,1.44
2023-01-17T04:42:18.589Z,1.38
2023-01-17T04:44:47.531Z,1.34
2023-01-17T04:47:19.545Z,1.31
2023-01-17T04:49:48.786Z,1.37
2023-01-17T04:52:20.825Z,1.40
2023-01-17T04:54:50.325Z,1.38
2023-01-17T04:57:20.231Z,1.45
2023-01-17T04:59:54.669Z,1.48
2023-01-17T05:02:33.365Z,1.45
2023-01-17T05:05:02.523Z,1.52
2023-01-17T05:07:35.654Z,1.57
2023-01-17T05:10:05.279Z,1.58
2023-01-17T05:12:37.041Z,1.61
2023-01-17T05:15:06.950Z,1.53
2023-01-17T05:17:35.841Z,1.55
2023-01-17T05:20:10.468Z,1.63
2023-01-17T05:22:41.831Z,1.63
2023-01-17T05:25:25.761Z,1.67
2023-01-17T05:28:01.617Z,1.67
2023-01-17T05:30:31.830Z,1.69
2023-01-17T05:33:01.655Z,1.75
2023-01-17T05:35:33.724Z,1.82
2023-01-17T05:38:05.006Z,1.70
2023-01-17T05:40:54.248Z,1.60
2023-01-17T05:43:23.744Z,1.54
2023-01-17T05:45:53.491Z,1.57
2023-01-17T05:48:22.738Z,1.60
2023-01-17T05:50:54.139Z,1.54
2023-01-17T05:53:30.771Z,1.66
2023-01-17T05:56:03.154Z,1.67
2023-01-17T05:58:35.019Z,1.73
2023-01-17T06:01:10.233Z,1.81
2023-01-17T06:03:39.355Z,1.86
2023-01-17T06:06:11.111Z,1.85
2023-01-17T06:08:45.543Z,1.86
2023-01-17T06:11:23.857Z,1.90
2023-01-17T06:13:53.218Z,1.79
2023-01-17T06:16:22.444Z,1.77
2023-01-17T06:18:51.958Z,1.70
2023-01-17T06:21:21.666Z,1.57
2023-01-17T06:24:03.934Z,1.45
2023-01-17T06:26:33.782Z,1.43
2023-01-17T06:29:05.848Z,1.40
2023-01-17T06:31:35.322Z,1.40
2023-01-17T06:34:06.625Z,1.43
2023-01-17T06:36:35.812Z,1.40
2023-01-17T06:39:06.474Z,1.45
2023-01-17T06:41:35.570Z,1.48
2023-01-17T06:44:05.328Z,1.49
2023-01-17T06:46:36.011Z,1.48
2023-01-17T06:49:05.276Z,1.41
2023-01-17T06:51:34.520Z,1.38
2023-01-17T06:54:03.574Z,1.33
2023-01-17T06:56:36.255Z,1.36
2023-01-17T06:59:05.564Z,1.42
2023-01-17T07:01:34.902Z,1.52
2023-01-17T07:04:05.633Z,1.56
2023-01-17T07:06:37.278Z,1.51
2023-01-17T07:09:07.994Z,1.44
2023-01-17T07:11:41.306Z,1.11
2023-01-17T07:14:14.737Z,1.16
2023-01-17T07:16:46.298Z,1.18
2023-01-17T07:19:18.304Z,1.21
2023-01-17T07:21:47.810Z,1.30
2023-01-17T07:24:16.986Z,1.30
2023-01-17T07:26:49.888Z,1.24
2023-01-17T07:29:22.059Z,1.20
2023-01-17T07:31:51.255Z,1.21
2023-01-17T07:34:20.631Z,1.26
2023-01-17T07:36:50.242Z,1.30
2023-01-17T07:39:22.235Z,1.36
2023-01-17T07:41:52.976Z,1.39
2023-01-17T07:44:24.832Z,1.39
2023-01-17T07:46:55.158Z,1.27
2023-01-17T07:49:24.661Z,1.22
2023-01-17T07:51:55.392Z,1.20
2023-01-17T07:54:24.396Z,1.25
2023-01-17T07:56:55.424Z,1.28
2023-01-17T07:59:24.695Z,1.33
2023-01-17T08:01:54.390Z,1.32
2023-01-17T08:04:27.018Z,1.32
2023-01-17T08:06:56.504Z,1.39
2023-01-17T08:09:28.290Z,1.35
2023-01-17T08:12:01.785Z,1.35
2023-01-17T08:14:31.187Z,1.28
2023-01-17T08:17:05.711Z,1.36
2023-01-17T08:19:35.427Z,1.31
2023-01-17T08:22:04.927Z,1.39
2023-01-17T08:24:37.817Z,1.47
2023-01-17T08:27:10.861Z,1.53
2023-01-17T08:32:30.416Z,1.66
2023-01-17T08:35:15.757Z,1.50
2023-01-17T08:37:45.485Z,1.46
2023-01-17T08:40:18.279Z,1.56
2023-01-17T08:42:57.011Z,1.72
2023-01-17T08:45:26.406Z,1.79
2023-01-17T08:47:55.798Z,1.87
2023-01-17T08:50:26.334Z,1.89
2023-01-17T08:53:01.243Z,1.97
2023-01-17T08:55:31.075Z,2.10
2023-01-17T08:58:02.531Z,2.15
2023-01-17T09:00:32.832Z,2.18
2023-01-17T09:03:02.665Z,2.25
2023-01-17T09:05:32.083Z,2.29
2023-01-17T09:08:01.166Z,2.39
2023-01-17T09:10:33.763Z,2.42
2023-01-17T09:13:06.841Z,2.52
2023-01-17T09:15:36.653Z,2.40
2023-01-17T09:18:09.235Z,2.48
2023-01-17T09:20:39.551Z,2.56
2023-01-17T09:23:10.083Z,2.58
2023-01-17T09:25:39.998Z,2.50
2023-01-17T09:28:11.244Z,2.62
2023-01-17T09:30:43.858Z,2.66
2023-01-17T09:33:13.436Z,2.51
2023-01-17T09:35:42.834Z,2.61
2023-01-17T09:38:12.239Z,2.63
2023-01-17T09:40:46.251Z,2.69
2023-01-17T09:43:23.520Z,2.80
2023-01-17T09:45:53.192Z,2.91
2023-01-17T09:48:27.552Z,3.01
2023-01-17T09:51:00.866Z,2.94
2023-01-17T09:53:35.366Z,3.03
2023-01-17T09:56:07.455Z,3.03
2023-01-17T09:58:42.622Z,3.11
2023-01-17T10:01:18.897Z,2.78
2023-01-17T10:04:11.750Z,2.76
2023-01-17T10:06:59.862Z,3.00
2023-01-17T10:09:44.212Z,3.15
2023-01-17T10:12:20.576Z,3.20
2023-01-17T10:15:07.475Z,3.24
2023-01-17T10:17:44.778Z,3.23
2023-01-17T10:20:21.249Z,3.32
2023-01-17T10:23:04.199Z,3.37
2023-01-17T10:25:45.039Z,3.45
2023-01-17T10:28:17.522Z,3.56
2023-01-17T10:30:51.315Z,3.41
2023-01-17T10:33:22.769Z,3.49
2023-01-17T10:35:57.403Z,3.59
2023-01-17T10:38:31.313Z,3.60
2023-01-17T10:41:08.267Z,3.68
2023-01-17T10:43:49.576Z,3.72
2023-01-17T10:46:23.603Z,3.61
2023-01-17T10:48:54.220Z,3.74
2023-01-17T10:52:00.087Z,3.69
2023-01-17T10:54:40.147Z,3.80
2023-01-17T10:57:15.253Z,3.79
2023-01-17T10:59:44.679Z,3.92
2023-01-17T11:02:22.344Z,3.98
2023-01-17T11:04:54.683Z,3.82
2023-01-17T11:07:27.428Z,3.80
2023-01-17T11:09:57.855Z,3.84
2023-01-17T11:12:30.033Z,4.01
2023-01-17T11:15:07.724Z,3.98
2023-01-17T11:17:39.705Z,4.05
2023-01-17T11:20:21.174Z,4.16
2023-01-17T11:23:05.424Z,4.21
2023-01-17T11:25:35.322Z,4.17
2023-01-17T11:28:07.412Z,4.33
2023-01-17T11:30:36.715Z,4.34
2023-01-17T11:33:09.013Z,4.22
2023-01-17T11:35:39.618Z,4.04
2023-01-17T11:38:14.467Z,4.20
2023-01-17T11:40:44.669Z,4.34
2023-01-17T11:43:23.003Z,4.37
2023-01-17T11:46:18.091Z,4.39
2023-01-17T11:48:53.488Z,4.44
2023-01-17T11:51:28.677Z,4.45
2023-01-17T11:54:10.401Z,4.49
2023-01-17T11:56:40.872Z,4.49
2023-01-17T11:59:18.960Z,4.49
2023-01-17T12:01:53.217Z,4.48
2023-01-17T12:04:26.305Z,4.51
2023-01-17T12:07:07.779Z,4.44
2023-01-17T12:09:41.496Z,4.56
2023-01-17T12:12:35.476Z,4.43
2023-01-17T12:15:12.870Z,4.45
2023-01-17T12:17:58.153Z,4.46
2023-01-17T12:20:35.745Z,4.64
2023-01-17T12:23:33.211Z,4.73
2023-01-17T12:26:19.642Z,4.71
2023-01-17T12:29:26.160Z,4.70
2023-01-17T12:32:03.477Z,4.69
2023-01-17T12:34:38.406Z,4.52
2023-01-17T12:37:17.335Z,4.53
2023-01-17T12:39:53.389Z,4.58
2023-01-17T12:42:25.842Z,4.57
2023-01-17T12:44:59.026Z,4.59
2023-01-17T12:47:27.958Z,4.59
2023-01-17T12:50:04.624Z,4.72
2023-01-17T12:52:49.056Z,4.60
2023-01-17T12:55:25.544Z,4.54
2023-01-17T12:57:58.845Z,4.50
2023-01-17T13:00:29.899Z,4.46
2023-01-17T13:03:06.379Z,4.47
2023-01-17T13:05:38.619Z,4.52
2023-01-17T13:08:36.873Z,4.64
2023-01-17T13:11:10.525Z,4.55
2023-01-17T13:13:43.570Z,4.56
2023-01-17T13:16:16.109Z,4.48
2023-01-17T13:18:47.715Z,4.41
2023-01-17T13:21:31.466Z,4.50
2023-01-17T13:24:16.827Z,4.46
2023-01-17T13:27:12.355Z,4.34
2023-01-17T13:29:53.613Z,4.31
2023-01-17T13:32:51.834Z,4.36
2023-01-17T13:35:24.308Z,4.32
2023-01-17T13:38:25.565Z,4.48
2023-01-17T13:40:58.652Z,4.59
2023-01-17T13:43:30.193Z,4.48
2023-01-17T13:46:03.308Z,4.39
2023-01-17T13:48:34.846Z,4.40
2023-01-17T13:51:04.555Z,4.45
2023-01-17T13:53:59.876Z,4.36
2023-01-17T13:56:34.373Z,4.34
2023-01-17T13:59:25.713Z,4.34
2023-01-17T14:01:55.307Z,4.24
2023-01-17T14:04:25.775Z,4.25
2023-01-17T14:06:57.161Z,4.31
2023-01-17T14:09:28.314Z,4.44
2023-01-17T14:12:02.020Z,4.47
2023-01-17T14:14:47.624Z,4.51
2023-01-17T14:17:48.470Z,4.36
2023-01-17T14:20:44.704Z,4.33
2023-01-17T14:23:34.488Z,4.39
2023-01-17T14:26:17.539Z,4.39
2023-01-17T14:28:48.144Z,4.45
2023-01-17T14:31:17.153Z,4.47
2023-01-17T14:33:46.436Z,4.47
2023-01-17T14:36:22.395Z,4.50
2023-01-17T14:38:51.287Z,4.41
2023-01-17T14:41:23.453Z,4.38
2023-01-17T14:43:54.292Z,4.39
2023-01-17T14:46:26.253Z,4.24
2023-01-17T14:49:01.857Z,4.28
2023-01-17T14:51:35.323Z,4.16
2023-01-17T14:54:06.760Z,4.09
2023-01-17T14:56:35.993Z,4.22
2023-01-17T14:59:17.431Z,4.15
2023-01-17T15:02:06.330Z,4.08
2023-01-17T15:04:39.749Z,4.06
2023-01-17T15:07:14.021Z,3.96
2023-01-17T15:09:44.652Z,4.04
2023-01-17T15:12:15.089Z,3.95
2023-01-17T15:14:47.516Z,3.87
2023-01-17T15:17:20.708Z,3.83
2023-01-17T15:19:54.248Z,3.82
2023-01-17T15:22:23.768Z,3.80
2023-01-17T15:24:53.336Z,3.70
2023-01-17T15:27:22.503Z,3.61
2023-01-17T15:29:54.292Z,3.58
2023-01-17T15:32:28.118Z,3.56
2023-01-17T15:35:08.156Z,3.67
2023-01-17T15:37:40.002Z,3.66
2023-01-17T15:40:19.000Z,3.65
2023-01-17T15:42:49.406Z,3.69
2023-01-17T15:45:23.937Z,3.57
2023-01-17T15:47:52.886Z,3.44
2023-01-17T15:50:30.421Z,3.39
2023-01-17T15:53:02.271Z,3.36
2023-01-17T15:55:33.634Z,3.33
2023-01-17T15:58:03.437Z,3.37
2023-01-17T16:00:41.999Z,3.38
2023-01-17T16:03:24.409Z,3.23
2023-01-17T16:05:54.795Z,3.22
2023-01-17T16:08:39.981Z,3.20
2023-01-17T16:11:11.829Z,3.14
2023-01-17T16:13:43.637Z,3.10
2023-01-17T16:16:16.793Z,3.14
2023-01-17T16:18:46.691Z,3.17
2023-01-17T16:21:21.363Z,3.17
2023-01-17T16:23:50.583Z,3.15
2023-01-17T16:26:19.512Z,3.17
2023-01-17T16:28:49.121Z,3.00
2023-01-17T16:31:19.942Z,3.05
2023-01-17T16:33:51.315Z,2.97
2023-01-17T16:36:23.187Z,2.94
2023-01-17T16:38:53.440Z,2.92
2023-01-17T16:41:22.667Z,2.98
2023-01-17T16:43:59.675Z,3.01
2023-01-17T16:46:32.808Z,3.00
2023-01-17T16:49:02.320Z,2.95
2023-01-17T16:51:31.756Z,2.85
2023-01-17T16:54:03.843Z,2.93
2023-01-17T16:56:32.974Z,2.79
2023-01-17T16:59:01.897Z,2.80
2023-01-17T17:01:32.670Z,2.82
2023-01-17T17:04:03.917Z,2.86
2023-01-17T17:06:33.075Z,2.84
2023-01-17T17:09:12.244Z,2.88
2023-01-17T17:11:43.293Z,2.91
2023-01-17T17:14:12.385Z,2.92
2023-01-17T17:16:43.783Z,2.84
2023-01-17T17:19:12.669Z,2.89
2023-01-17T17:21:41.925Z,2.92
2023-01-17T17:24:14.055Z,2.91
2023-01-17T17:26:43.747Z,2.92
2023-01-17T17:29:14.236Z,2.88
2023-01-17T17:31:44.980Z,2.79
2023-01-17T17:34:17.649Z,2.64
2023-01-17T17:36:47.566Z,2.79
2023-01-17T17:39:17.191Z,2.75
2023-01-17T17:41:46.886Z,2.83
2023-01-17T17:44:16.655Z,2.80
2023-01-17T17:46:49.386Z,2.89
2023-01-17T17:49:18.889Z,2.86
2023-01-17T17:51:48.250Z,2.91
2023-01-17T17:54:19.167Z,2.91
2023-01-17T17:56:49.470Z,2.81
2023-01-17T17:59:22.039Z,2.89
2023-01-17T18:02:17.495Z,2.90
2023-01-17T18:04:47.329Z,2.86
2023-01-17T18:07:16.408Z,2.95
2023-01-17T18:09:45.761Z,3.00
2023-01-17T18:12:14.960Z,3.03
2023-01-17T18:14:44.032Z,3.04
2023-01-17T18:17:14.180Z,3.07
2023-01-17T18:19:46.344Z,3.07
2023-01-17T18:22:17.773Z,3.07
2023-01-17T18:24:47.914Z,3.03
2023-01-17T18:27:17.207Z,3.05
2023-01-17T18:29:46.215Z,3.07
2023-01-17T18:32:15.203Z,3.07
2023-01-17T18:34:46.041Z,3.05
2023-01-17T18:37:15.654Z,3.04
2023-01-17T18:39:48.212Z,3.07
2023-01-17T18:42:17.326Z,3.03
2023-01-17T18:44:46.839Z,3.09
2023-01-17T18:47:16.010Z,3.14
2023-01-17T18:49:46.259Z,3.06
2023-01-17T18:52:15.230Z,3.09
2023-01-17T18:54:44.352Z,3.13
2023-01-17T18:57:21.019Z,3.14
2023-01-17T18:59:50.117Z,3.13
2023-01-17T19:02:20.151Z,3.13
2023-01-17T19:04:50.874Z,3.04
2023-01-17T19:07:21.412Z,2.97
2023-01-17T19:09:50.493Z,3.01
2023-01-17T19:12:20.804Z,2.98
2023-01-17T19:14:51.760Z,2.98
2023-01-17T19:17:20.869Z,3.04
2023-01-17T19:19:51.356Z,2.95
2023-01-17T19:22:21.900Z,3.01
2023-01-17T19:24:53.967Z,2.96
2023-01-17T19:27:23.284Z,2.87
2023-01-17T19:29:52.387Z,2.88
2023-01-17T19:32:21.173Z,2.63
2023-01-17T19:35:06.622Z,2.51
2023-01-17T19:37:35.852Z,2.54
2023-01-17T19:40:05.255Z,2.64
2023-01-17T19:42:34.117Z,2.70
2023-01-17T19:45:03.144Z,2.57
2023-01-17T19:47:32.348Z,2.59
2023-01-17T19:50:08.509Z,2.65
2023-01-17T19:52:39.241Z,2.43
2023-01-17T19:55:09.988Z,2.28
2023-01-17T19:57:40.917Z,2.39
2023-01-17T20:00:13.210Z,2.31
2023-01-17T20:02:42.298Z,2.37
2023-01-17T20:05:11.515Z,2.45
2023-01-17T20:07:42.302Z,2.52
2023-01-17T20:10:12.443Z,2.57
2023-01-17T20:12:44.892Z,2.63
2023-01-17T20:15:14.011Z,2.68
2023-01-17T20:17:42.984Z,2.70
2023-01-17T20:20:13.826Z,2.71
2023-01-17T20:22:45.086Z,2.77
2023-01-17T20:25:15.005Z,2.67
2023-01-17T20:27:45.959Z,2.66
2023-01-17T20:30:20.547Z,2.67
2023-01-17T20:33:17.929Z,2.72
2023-01-17T20:35:51.585Z,2.73
2023-01-17T20:38:43.687Z,2.72
2023-01-17T20:41:14.121Z,2.67
2023-01-17T20:43:43.502Z,2.61
2023-01-17T20:46:13.359Z,2.36
2023-01-17T20:48:46.921Z,2.32
2023-01-17T20:51:17.456Z,2.36
2023-01-17T20:53:48.670Z,2.38
2023-01-17T20:56:27.925Z,2.31
2023-01-17T20:58:58.253Z,2.30
2023-01-17T21:01:27.753Z,2.36
2023-01-17T21:03:57.146Z,2.45
2023-01-17T21:06:26.444Z,2.44
2023-01-17T21:09:01.098Z,2.42
2023-01-17T21:11:30.907Z,2.47
2023-01-17T21:14:00.129Z,2.52
2023-01-17T21:16:29.844Z,2.51
2023-01-17T21:18:59.011Z,2.47
2023-01-17T21:21:29.086Z,2.47
2023-01-17T21:24:00.602Z,2.44
2023-01-17T21:26:38.946Z,2.47
2023-01-17T21:29:08.104Z,2.46
2023-01-17T21:31:38.933Z,2.45
2023-01-17T21:34:10.494Z,2.46
2023-01-17T21:36:40.889Z,2.47
2023-01-17T21:39:13.967Z,2.52
2023-01-17T21:41:47.403Z,2.45
2023-01-17T21:44:19.529Z,2.46
2023-01-17T21:46:54.367Z,2.37
2023-01-17T21:49:25.762Z,2.24
2023-01-17T21:52:15.435Z,2.17
2023-01-17T21:55:03.577Z,2.26
2023-01-17T21:57:52.843Z,2.34
2023-01-17T22:00:22.971Z,2.30
2023-01-17T22:02:52.099Z,2.32
2023-01-17T22:05:22.073Z,2.27
2023-01-17T22:08:15.452Z,2.26
2023-01-17T22:10:46.187Z,2.27
2023-01-17T22:13:15.978Z,2.27
2023-01-17T22:15:45.824Z,2.28
2023-01-17T22:18:15.518Z,2.32
2023-01-17T22:20:44.526Z,2.35
2023-01-17T22:23:17.912Z,2.29
2023-01-17T22:25:48.444Z,2.33
2023-01-17T22:28:17.640Z,2.27
2023-01-17T22:30:46.890Z,2.27
2023-01-17T22:33:17.468Z,2.24
2023-01-17T22:35:49.438Z,2.25
2023-01-17T22:38:18.515Z,2.21
2023-01-17T22:40:48.965Z,2.21
2023-01-17T22:43:18.361Z,2.28
2023-01-17T22:45:50.020Z,2.23
2023-01-17T22:48:20.651Z,2.21
2023-01-17T22:50:49.444Z,2.17
2023-01-17T22:53:18.741Z,2.18
2023-01-17T22:55:48.965Z,2.19
2023-01-17T22:58:19.188Z,2.21
2023-01-17T23:00:49.838Z,2.07
2023-01-17T23:03:21.199Z,2.01
2023-01-17T23:05:50.581Z,1.99
2023-01-17T23:08:21.311Z,2.00
2023-01-17T23:11:09.042Z,2.08
2023-01-17T23:13:39.064Z,2.05
2023-01-17T23:16:26.181Z,2.04
2023-01-17T23:19:14.937Z,2.03
2023-01-17T23:22:01.825Z,1.94
2023-01-17T23:24:34.114Z,1.86
2023-01-17T23:27:25.547Z,1.86
2023-01-17T23:29:54.544Z,1.94
2023-01-17T23:32:23.838Z,1.88
2023-01-17T23:34:52.834Z,1.94
2023-01-17T23:37:22.023Z,1.88
2023-01-17T23:39:53.074Z,1.92
2023-01-17T23:42:43.895Z,1.88
2023-01-17T23:45:13.282Z,1.87
2023-01-17T23:47:52.674Z,1.80
2023-01-17T23:50:22.176Z,1.72
2023-01-17T23:52:51.221Z,1.75
2023-01-17T23:55:20.227Z,1.70
2023-01-17T23:57:53.101Z,1.55
